Arnett, Oklahoma
Current Conditions -  °F | °C
As of 6:13 AM on Sunday 21 Dec 2014 (Local Time) from KGAG Reporting Station
Haze Haze  
Wind Chill: 34°   Ceiling: 300
Heat Index: 41°   Visibility: 2.5mi
Dew Point: 40°   Wind: 13mph
Humidity: 96%   Direction: 170°S
Pressure: 29.91"   Gusts: 21mph
Location:  36.14°N, 99.77°W
Report Text: KGAG 211213Z AUTO 17011G18KT 2 1/2SM BR OVC003 05/04 A2991 RMK AO2 T00500044
Loading
Personal Weather Stations






























Interactive Weather Map New forecast layout! Learn more

10-Day Weather Forecast

Advertisements
Track Severe Weather on mobile